Time;durP1;ratioP1;P1;durP2;ratioP2;P2;SDS_P1;SDS_P2;PMS_P1;PMS_P2;Temp;Humidity;BMP_temperature;BMP_pressure;BME280_temperature;BME280_humidity;BME280_pressure;Samples;Min_cycle;Max_cycle;Signal;HPM_P1;HPM_P2
2022/12/20 00:00:54;;;;;;;11.57;6.80;;;;;;;-1.78;84.49;146888.88;4894962;29;20033;-60
2022/12/20 00:03:20;;;;;;;9.70;6.70;;;;;;;-1.77;84.46;146891.41;4898779;29;20037;-60
2022/12/20 00:05:46;;;;;;;9.43;6.03;;;;;;;-1.83;85.62;146877.47;4903928;29;20033;-59
2022/12/20 00:08:12;;;;;;;8.90;6.07;;;;;;;-1.81;85.09;146881.25;4890869;29;20047;-59
2022/12/20 00:10:39;;;;;;;9.80;6.13;;;;;;;-1.87;84.89;146866.03;4907087;29;20265;-60
2022/12/20 00:13:06;;;;;;;8.65;6.35;;;;;;;-1.88;84.08;146863.50;4893541;29;20036;-59
2022/12/20 00:15:32;;;;;;;10.75;6.32;;;;;;;-1.87;84.20;146866.03;4900072;29;20032;-59
2022/12/20 00:17:58;;;;;;;9.70;6.85;;;;;;;-1.94;84.38;146850.84;4902268;29;20085;-60
2022/12/20 00:20:24;;;;;;;9.98;6.45;;;;;;;-2.07;84.29;146817.81;4891223;29;20041;-61
2022/12/20 00:22:50;;;;;;;8.80;6.00;;;;;;;-2.14;85.11;146800.03;4918326;29;20036;-60
2022/12/20 00:25:16;;;;;;;9.75;6.60;;;;;;;-2.11;84.67;146808.94;4909808;29;20036;-60
2022/12/20 00:27:41;;;;;;;8.98;6.15;;;;;;;-2.10;84.91;146810.19;4896247;29;20300;-60
2022/12/20 00:30:07;;;;;;;10.57;6.78;;;;;;;-2.02;84.14;146829.22;4896478;29;20048;-60
2022/12/20 00:32:33;;;;;;;10.88;6.45;;;;;;;-2.09;84.57;146812.75;4905263;29;20333;-60
2022/12/20 00:34:59;;;;;;;10.48;7.07;;;;;;;-2.21;84.17;146782.28;4890821;29;20054;-60
2022/12/20 00:37:24;;;;;;;10.00;7.03;;;;;;;-2.02;84.48;146830.50;4889456;29;20025;-60
2022/12/20 00:39:50;;;;;;;13.50;6.45;;;;;;;-2.11;83.83;146807.66;4900221;29;20194;-61
2022/12/20 00:42:15;;;;;;;10.60;6.65;;;;;;;-2.15;84.85;146797.50;4907901;29;20055;-61
2022/12/20 00:44:41;;;;;;;12.77;7.28;;;;;;;-2.11;84.46;146807.66;4903991;29;20036;-60
2022/12/20 00:47:06;;;;;;;10.40;6.45;;;;;;;-2.19;83.53;146787.38;4889205;29;20123;-60
2022/12/20 00:49:32;;;;;;;13.40;7.22;;;;;;;-2.05;84.42;146822.91;4907209;29;20032;-61
2022/12/20 00:51:57;;;;;;;9.50;6.50;;;;;;;-2.14;84.30;146800.03;4894071;29;20065;-61
2022/12/20 00:54:23;;;;;;;11.13;7.03;;;;;;;-2.17;85.02;146792.44;4898185;29;20032;-61
2022/12/20 00:56:49;;;;;;;8.95;6.57;;;;;;;-2.20;84.43;146786.09;4903034;29;20040;-60
2022/12/20 00:59:14;;;;;;;9.07;6.15;;;;;;;-2.22;84.16;146781.03;4889133;29;20060;-60
2022/12/20 01:01:40;;;;;;;11.30;6.95;;;;;;;-2.26;84.32;146772.13;4888992;29;20214;-61
2022/12/20 01:04:07;;;;;;;9.10;6.63;;;;;;;-2.26;83.72;146772.13;4888792;29;20029;-61
2022/12/20 01:06:32;;;;;;;9.90;6.80;;;;;;;-2.23;83.42;146777.22;4906433;29;20069;-60
2022/12/20 01:08:58;;;;;;;8.80;6.78;;;;;;;-2.19;83.82;146788.63;4901891;29;20100;-60
2022/12/20 01:11:35;;;;;;;11.43;6.80;;;;;;;-2.32;83.74;146756.91;4890271;29;20029;-61
2022/12/20 01:14:05;;;;;;;10.75;7.65;;;;;;;-2.34;84.27;146750.56;4907559;29;20056;-59
2022/12/20 01:16:45;;;;;;;10.27;7.43;;;;;;;-2.27;83.79;146769.63;4891548;29;20095;-60
2022/12/20 01:19:14;;;;;;;9.60;7.25;;;;;;;-2.52;83.64;146707.44;4889142;29;20170;-60
2022/12/20 01:21:43;;;;;;;11.65;7.53;;;;;;;-2.44;84.67;146727.75;4900836;29;20305;-59
2022/12/20 01:24:13;;;;;;;10.15;7.18;;;;;;;-2.29;84.87;146764.53;4919470;29;20040;-59
2022/12/20 01:26:39;;;;;;;11.77;7.22;;;;;;;-2.37;83.71;146744.22;4904082;29;20044;-59
2022/12/20 01:29:04;;;;;;;11.00;7.97;;;;;;;-2.31;83.42;146758.16;4898792;29;20036;-60
2022/12/20 01:31:30;;;;;;;12.15;7.80;;;;;;;-2.24;83.95;146775.94;4890099;29;20048;-61
2022/12/20 01:33:57;;;;;;;12.68;8.10;;;;;;;-2.22;83.40;146779.72;4901485;29;20048;-61
2022/12/20 01:36:31;;;;;;;11.43;8.18;;;;;;;-2.28;84.02;146765.78;4907348;29;20032;-61
2022/12/20 01:39:03;;;;;;;10.20;7.53;;;;;;;-2.19;84.32;146787.38;4902110;29;20035;-60
2022/12/20 01:41:29;;;;;;;13.00;8.55;;;;;;;-2.10;84.65;146811.44;4890269;29;20025;-61
2022/12/20 01:44:01;;;;;;;10.70;7.35;;;;;;;-2.24;83.65;146774.69;4907507;29;20341;-61
2022/12/20 01:46:32;;;;;;;10.23;7.60;;;;;;;-2.26;83.73;146770.88;4900111;29;20084;-60
2022/12/20 01:49:33;;;;;;;10.57;7.78;;;;;;;-2.10;82.98;146811.44;4907378;29;20056;-60
2022/12/20 01:52:02;;;;;;;9.43;6.75;;;;;;;-2.28;83.49;146767.06;4886229;29;20029;-59
2022/12/20 01:54:40;;;;;;;8.23;6.57;;;;;;;-2.33;82.74;146754.38;4907358;29;20032;-61
2022/12/20 01:57:11;;;;;;;11.52;6.85;;;;;;;-2.26;83.90;146772.13;4901062;29;20056;-61
2022/12/20 01:59:39;;;;;;;8.35;6.53;;;;;;;-2.32;83.84;146756.91;4890939;29;20029;-60
2022/12/20 02:02:08;;;;;;;8.93;7.03;;;;;;;-2.44;83.05;146726.44;4908250;29;20035;-60
2022/12/20 02:04:34;;;;;;;10.15;6.82;;;;;;;-2.28;84.31;146765.78;4910703;29;20032;-60
2022/12/20 02:07:02;;;;;;;10.63;6.78;;;;;;;-2.40;83.93;146736.59;4897576;29;20024;-61
2022/12/20 02:09:29;;;;;;;8.98;6.20;;;;;;;-2.31;83.79;146759.47;4900657;29;20067;-61
2022/12/20 02:12:13;;;;;;;11.38;7.07;;;;;;;-2.32;83.08;146756.91;4896260;29;20347;-61
2022/12/20 02:14:50;;;;;;;8.93;6.70;;;;;;;-2.31;82.02;146758.16;4907700;29;21498;-61
2022/12/20 02:17:21;;;;;;;9.40;6.88;;;;;;;-2.32;82.78;146755.66;4891746;29;20321;-60
2022/12/20 02:20:13;;;;;;;;;;;;;;;-2.36;83.10;146746.75;4892223;29;20029;-61
2022/12/20 02:22:56;;;;;;;8.90;6.22;;;;;;;-2.46;83.38;146722.66;4900069;29;19911;-60
2022/12/20 02:25:31;;;;;;;9.02;6.55;;;;;;;-2.47;83.30;146720.09;4910295;29;20182;-60
2022/12/20 02:28:25;;;;;;;7.60;6.20;;;;;;;-2.62;83.02;146683.34;4904021;29;20112;-60
2022/12/20 02:30:54;;;;;;;9.52;6.60;;;;;;;-2.74;83.51;146652.88;4909776;29;20120;-60
2022/12/20 02:33:20;;;;;;;8.68;6.47;;;;;;;-2.75;82.24;146649.09;4908140;29;20066;-61
2022/12/20 02:35:46;;;;;;;8.68;6.20;;;;;;;-2.95;81.32;146600.88;4908686;29;20221;-61
2022/12/20 02:38:32;;;;;;;10.95;6.80;;;;;;;-2.86;79.17;146623.72;4909985;29;20036;-61
2022/12/20 02:41:07;;;;;;;6.70;5.25;;;;;;;-2.86;79.14;146622.47;4891100;29;20329;-61
2022/12/20 02:46:20;;;;;;;9.32;6.35;;;;;;;-2.85;80.06;146624.97;4909666;29;20336;-60
2022/12/20 02:48:48;;;;;;;10.57;6.68;;;;;;;-2.79;79.86;146641.47;4909694;29;20390;-60
2022/12/20 02:51:17;;;;;;;8.65;6.53;;;;;;;-2.76;79.90;146647.81;4902991;29;20028;-61
2022/12/20 02:53:43;;;;;;;8.48;5.97;;;;;;;-2.75;77.76;146650.38;4893860;29;20033;-61
2022/12/20 02:56:22;;;;;;;11.15;6.72;;;;;;;-2.80;79.48;146637.69;4909895;29;20109;-59
2022/12/20 02:59:16;;;;;;;11.65;7.60;;;;;;;-2.68;79.94;146668.13;4906463;29;20028;-60
2022/12/20 03:01:52;;;;;;;11.57;7.50;;;;;;;-2.86;81.07;146622.47;4907540;29;20052;-59
2022/12/20 03:04:23;;;;;;;9.60;7.65;;;;;;;-2.82;80.80;146632.56;4894522;29;20037;-60
2022/12/20 03:07:15;;;;;;;9.35;6.70;;;;;;;-2.82;80.33;146632.56;4890523;29;20041;-60
2022/12/20 03:09:42;;;;;;;11.63;7.28;;;;;;;-2.88;81.21;146618.66;4899776;29;20107;-60
2022/12/20 03:12:13;;;;;;;9.98;6.75;;;;;;;-3.06;79.98;146573.03;4903359;29;20036;-59
2022/12/20 03:14:39;;;;;;;8.73;6.80;;;;;;;-2.80;80.55;146637.69;4891714;29;20036;-60
2022/12/20 03:17:05;;;;;;;10.27;7.05;;;;;;;-2.93;79.59;146605.97;4909574;29;20313;-59
2022/12/20 03:19:30;;;;;;;9.65;6.85;;;;;;;-2.82;79.46;146633.88;4892815;29;20061;-59
2022/12/20 03:21:57;;;;;;;10.30;6.90;;;;;;;-2.89;79.42;146614.81;4905562;29;20051;-61
2022/12/20 03:24:22;;;;;;;13.32;7.90;;;;;;;-3.01;79.42;146586.94;4920521;29;20069;-60
2022/12/20 03:26:48;;;;;;;9.90;6.72;;;;;;;-2.91;80.13;146609.78;4905616;29;20045;-61
2022/12/20 03:29:13;;;;;;;9.65;6.55;;;;;;;-2.91;79.89;146611.03;4890460;29;20033;-59
2022/12/20 03:31:39;;;;;;;8.73;6.43;;;;;;;-2.78;79.67;146642.72;4907769;29;20063;-61
2022/12/20 03:34:05;;;;;;;11.48;6.43;;;;;;;-2.93;78.18;146605.97;4908797;29;20059;-60
2022/12/20 03:36:31;;;;;;;9.70;7.07;;;;;;;-3.08;78.36;146569.19;4908822;29;20087;-59
2022/12/20 03:38:56;;;;;;;11.35;7.13;;;;;;;-3.14;78.21;146553.97;4904691;29;20081;-59
2022/12/20 03:41:22;;;;;;;12.18;7.22;;;;;;;-3.08;78.47;146569.19;4890329;29;20092;-59
2022/12/20 03:43:48;;;;;;;11.45;7.22;;;;;;;-3.10;78.35;146562.88;4908506;29;20095;-59
2022/12/20 03:46:14;;;;;;;9.60;7.00;;;;;;;-3.00;79.27;146588.22;4908589;29;20046;-59
2022/12/20 03:48:40;;;;;;;11.43;7.45;;;;;;;-3.10;78.12;146564.13;4908581;29;20036;-61
2022/12/20 03:51:05;;;;;;;11.13;7.72;;;;;;;-3.21;78.60;146536.22;4907587;29;20033;-60
2022/12/20 03:53:31;;;;;;;13.57;7.80;;;;;;;-3.28;77.12;146519.75;4908729;29;20031;-59
2022/12/20 03:55:57;;;;;;;9.65;6.88;;;;;;;-3.50;76.93;146465.25;4908557;29;20092;-59
2022/12/20 03:58:23;;;;;;;13.05;7.63;;;;;;;-3.41;76.36;146488.06;4893397;29;20036;-59
2022/12/20 04:00:48;;;;;;;11.10;7.45;;;;;;;-3.33;78.00;146507.09;4900380;29;20305;-62
2022/12/20 04:03:14;;;;;;;14.95;8.13;;;;;;;-3.42;77.04;146485.56;4902161;29;20100;-61
2022/12/20 04:05:40;;;;;;;11.80;8.02;;;;;;;-3.51;76.81;146463.97;4891501;29;20029;-61
2022/12/20 04:08:05;;;;;;;12.57;7.93;;;;;;;-3.39;76.71;146493.16;4908365;29;20056;-62
2022/12/20 04:10:31;;;;;;;11.88;7.72;;;;;;;-3.43;76.14;146483.00;4892421;29;20093;-61
2022/12/20 04:12:56;;;;;;;13.30;7.63;;;;;;;-3.32;75.81;146509.59;4908541;29;20035;-62
2022/12/20 04:15:22;;;;;;;13.20;8.13;;;;;;;-3.42;75.53;146484.25;4920059;29;20221;-62
2022/12/20 04:17:47;;;;;;;14.57;9.18;;;;;;;-3.43;76.48;146483.00;4922729;29;20213;-63
2022/12/20 04:20:17;;;;;;;12.10;7.97;;;;;;;-3.65;74.88;146428.47;4908240;29;20332;-63
2022/12/20 04:22:47;;;;;;;12.50;8.70;;;;;;;-3.50;74.92;146465.25;4908752;29;20035;-63
2022/12/20 04:25:13;;;;;;;14.60;8.38;;;;;;;-3.59;75.52;146443.72;4913174;29;20353;-63
2022/12/20 04:27:39;;;;;;;14.45;8.52;;;;;;;-3.73;74.64;146408.25;4904002;29;20052;-62
2022/12/20 04:30:05;;;;;;;13.05;8.45;;;;;;;-3.75;74.98;146404.41;4906787;29;20036;-62
2022/12/20 04:32:30;;;;;;;12.98;8.18;;;;;;;-3.77;74.76;146399.34;4907971;29;20269;-65
2022/12/20 04:34:56;;;;;;;15.32;8.93;;;;;;;-3.77;74.62;146399.34;4907661;29;20036;-62
2022/12/20 04:37:21;;;;;;;13.73;8.40;;;;;;;-3.72;75.58;146412.03;4907690;29;20028;-63
2022/12/20 04:39:47;;;;;;;15.40;9.00;;;;;;;-3.85;72.44;146379.06;4907543;29;20037;-62
2022/12/20 04:42:12;;;;;;;14.40;8.73;;;;;;;-3.81;72.90;146390.47;4902332;29;20135;-63
2022/12/20 04:44:38;;;;;;;15.50;8.85;;;;;;;-3.84;72.95;146382.88;4903315;29;20032;-63
2022/12/20 04:47:03;;;;;;;15.38;9.27;;;;;;;-3.94;71.41;146356.28;4907200;29;20057;-62
2022/12/20 04:49:29;;;;;;;16.10;9.40;;;;;;;-3.88;70.83;146372.72;4905564;29;20062;-61
2022/12/20 04:53:46;;;;;;;13.20;8.80;;;;;;;-3.90;71.12;146366.44;4907405;29;20052;-62
2022/12/20 04:54:40;;;;;;;14.20;9.18;;;;;;;-3.75;71.24;146403.16;4898298;29;20033;-62
2022/12/20 04:57:05;;;;;;;14.98;9.45;;;;;;;-3.96;70.96;146351.19;4893663;29;20021;-62
2022/12/20 04:59:31;;;;;;;13.73;9.43;;;;;;;-4.01;69.08;146341.06;4926087;29;20193;-63
2022/12/20 05:01:56;;;;;;;15.25;9.02;;;;;;;-3.90;69.97;146367.69;4907183;29;20342;-63
2022/12/20 05:04:22;;;;;;;15.98;9.45;;;;;;;-3.89;70.34;146368.94;4906270;29;20035;-64
2022/12/20 05:06:47;;;;;;;15.75;9.40;;;;;;;-3.85;70.52;146379.06;4907460;29;20193;-62
2022/12/20 05:09:13;;;;;;;15.30;8.73;;;;;;;-4.09;70.15;146320.81;4911563;29;20032;-62
2022/12/20 05:11:38;;;;;;;16.55;9.35;;;;;;;-4.08;70.83;146323.31;4907045;29;20028;-62
2022/12/20 05:14:04;;;;;;;16.48;9.65;;;;;;;-4.06;69.67;146328.41;4907261;29;20032;-61
2022/12/20 05:16:30;;;;;;;15.02;9.68;;;;;;;-4.07;70.28;146324.63;4906742;29;20033;-61
2022/12/20 05:18:55;;;;;;;15.60;9.82;;;;;;;-4.15;69.96;146305.59;4907206;29;20036;-61
2022/12/20 05:26:50;;;;;;;16.13;9.93;;;;;;;-4.21;69.19;146291.66;4904830;29;20051;-60
2022/12/20 05:29:15;;;;;;;16.17;9.95;;;;;;;-4.05;70.99;146329.66;4903430;29;20028;-61
2022/12/20 05:31:41;;;;;;;16.67;10.38;;;;;;;-4.27;68.46;146276.47;4914681;29;20216;-61
2022/12/20 05:34:06;;;;;;;17.38;10.13;;;;;;;-4.42;68.71;146239.72;4915790;29;20285;-61
2022/12/20 05:36:32;;;;;;;14.98;9.90;;;;;;;-4.33;69.30;146261.28;4930660;29;20024;-60
2022/12/20 05:38:57;;;;;;;16.60;10.23;;;;;;;-4.41;68.11;146242.28;4920159;29;20149;-61
2022/12/20 05:41:23;;;;;;;15.30;9.75;;;;;;;-4.29;71.21;146270.13;4919241;29;20033;-60
2022/12/20 05:43:49;;;;;;;14.48;10.13;;;;;;;-4.23;70.01;146285.31;4912176;29;20029;-62
2022/12/20 05:46:14;;;;;;;15.15;9.55;;;;;;;-4.36;69.50;146253.66;4910515;29;20033;-61
2022/12/20 05:48:40;;;;;;;18.00;10.75;;;;;;;-4.34;68.21;146258.75;4910624;29;20056;-61
2022/12/20 05:51:05;;;;;;;17.70;9.90;;;;;;;-4.23;68.60;146285.31;4906751;29;20033;-60
2022/12/20 05:53:31;;;;;;;17.70;10.10;;;;;;;-4.22;67.25;146287.88;4892161;29;20190;-61
2022/12/20 05:55:57;;;;;;;13.30;9.18;;;;;;;-4.17;68.26;146301.78;4910335;29;20044;-62
2022/12/20 05:58:23;;;;;;;15.40;9.52;;;;;;;-4.08;69.37;146323.31;4896499;29;20045;-61
2022/12/20 06:00:48;;;;;;;15.77;10.07;;;;;;;-4.26;68.93;146279.03;4901520;29;20096;-61
2022/12/20 06:03:14;;;;;;;17.15;10.60;;;;;;;-4.04;70.54;146333.47;4905483;29;20025;-61
2022/12/20 06:05:42;;;;;;;16.73;9.48;;;;;;;-3.95;68.09;146353.75;4892558;29;20025;-62
2022/12/20 06:08:08;;;;;;;18.25;10.55;;;;;;;-3.90;69.19;146366.44;4910273;29;20213;-62
2022/12/20 06:10:35;;;;;;;16.25;10.75;;;;;;;-3.87;68.65;146374.03;4910266;29;20312;-61
2022/12/20 06:13:03;;;;;;;16.00;8.90;;;;;;;-3.87;67.18;146375.28;4901035;29;20113;-63
2022/12/20 06:15:30;;;;;;;14.90;9.35;;;;;;;-3.76;67.72;146401.91;4908848;29;20032;-62
2022/12/20 06:17:55;;;;;;;17.75;10.15;;;;;;;-3.81;69.49;146390.47;4907485;29;20041;-63
2022/12/20 06:20:21;;;;;;;15.70;9.25;;;;;;;-3.89;66.66;146368.94;4891115;29;20044;-63
2022/12/20 06:22:47;;;;;;;16.92;10.07;;;;;;;-3.83;69.23;146385.41;4917953;29;20051;-62
2022/12/20 06:25:14;;;;;;;15.25;9.68;;;;;;;-3.91;68.48;146363.88;4916404;29;20039;-62
2022/12/20 06:27:40;;;;;;;15.82;10.07;;;;;;;-3.90;67.97;146367.69;4901878;29;20049;-62
2022/12/20 06:30:06;;;;;;;20.08;10.52;;;;;;;-3.83;67.81;146385.41;4894995;29;20309;-62
2022/12/20 06:32:33;;;;;;;17.73;11.10;;;;;;;-3.86;70.06;146376.56;4910133;29;20031;-62
2022/12/20 06:34:58;;;;;;;18.88;10.45;;;;;;;-3.91;68.72;146365.13;4896811;29;20021;-62
2022/12/20 06:37:24;;;;;;;17.02;11.13;;;;;;;-3.77;68.02;146399.34;4895861;29;20049;-63
2022/12/20 06:39:49;;;;;;;14.48;9.05;;;;;;;-3.69;69.92;146419.63;4900590;29;20197;-63
2022/12/20 06:42:15;;;;;;;16.10;10.55;;;;;;;-3.69;68.65;146419.63;4908264;29;20028;-63
2022/12/20 06:44:40;;;;;;;18.33;9.65;;;;;;;-3.83;67.78;146384.16;4909868;29;20028;-62
2022/12/20 06:47:07;;;;;;;13.43;8.55;;;;;;;-3.81;66.91;146389.22;4909837;29;20032;-62
2022/12/20 06:49:32;;;;;;;16.60;9.90;;;;;;;-3.91;67.79;146365.13;4909713;29;20227;-63
2022/12/20 06:51:58;;;;;;;13.13;8.88;;;;;;;-3.76;66.47;146400.59;4913684;29;20096;-63
2022/12/20 06:54:23;;;;;;;18.88;9.82;;;;;;;-3.64;66.54;146431.03;4890837;29;20028;-63
2022/12/20 06:56:49;;;;;;;17.08;9.43;;;;;;;-3.74;65.98;146405.69;4890722;29;20028;-64
2022/12/20 06:59:15;;;;;;;14.02;9.07;;;;;;;-3.90;66.91;146366.44;4891017;29;20028;-63
2022/12/20 07:01:40;;;;;;;16.48;9.88;;;;;;;-3.83;66.92;146384.16;4906604;29;20020;-62
2022/12/20 07:04:06;;;;;;;14.88;8.73;;;;;;;-3.60;68.06;146439.94;4914352;29;20061;-63
2022/12/20 07:06:31;;;;;;;15.27;9.55;;;;;;;-3.76;66.69;146400.59;4913328;29;20032;-64
2022/12/20 07:08:57;;;;;;;15.20;9.35;;;;;;;-3.67;68.40;146424.69;4912068;29;20039;-63
2022/12/20 07:11:22;;;;;;;14.90;8.77;;;;;;;-3.59;65.83;146443.72;4890798;29;20029;-62
2022/12/20 07:13:49;;;;;;;11.90;7.80;;;;;;;-3.71;66.40;146414.53;4907513;29;20044;-62
2022/12/20 07:16:15;;;;;;;12.27;7.50;;;;;;;-3.59;65.54;146442.44;4910671;29;20100;-63
2022/12/20 07:18:40;;;;;;;11.07;7.30;;;;;;;-3.42;66.29;146485.56;4913691;29;20036;-62
2022/12/20 07:21:06;;;;;;;13.48;8.07;;;;;;;-3.42;67.28;146485.56;4908637;29;20028;-62
2022/12/20 07:23:32;;;;;;;12.00;7.95;;;;;;;-3.51;64.53;146462.72;4897677;29;20033;-61
2022/12/20 07:25:59;;;;;;;14.13;8.48;;;;;;;-3.84;65.45;146381.63;4911288;29;20028;-62
2022/12/20 07:28:26;;;;;;;11.73;8.13;;;;;;;-3.64;64.35;146431.03;4914308;29;20312;-61
2022/12/20 07:30:53;;;;;;;13.63;7.63;;;;;;;-3.57;65.25;146448.78;4899495;29;20036;-62
2022/12/20 07:33:19;;;;;;;13.38;8.00;;;;;;;-3.69;65.33;146419.63;4906382;29;20083;-62
2022/12/20 07:35:45;;;;;;;12.68;7.50;;;;;;;-3.60;65.92;146441.19;4916830;29;20032;-62
2022/12/20 07:38:14;;;;;;;11.57;7.50;;;;;;;-3.77;64.50;146398.09;4911413;29;20062;-62
2022/12/20 07:40:41;;;;;;;14.98;7.47;;;;;;;-3.83;64.64;146384.16;4920900;29;20043;-62
2022/12/20 07:43:10;;;;;;;12.50;7.65;;;;;;;-3.60;66.56;146441.19;4918434;29;20027;-62
2022/12/20 07:45:39;;;;;;;11.07;6.60;;;;;;;-3.65;65.21;146429.78;4916807;29;20221;-62
2022/12/20 07:48:04;;;;;;;10.98;7.00;;;;;;;-3.72;64.10;146410.75;4906275;29;20210;-63
2022/12/20 07:50:32;;;;;;;12.10;7.05;;;;;;;-3.61;65.47;146437.38;4910844;29;20095;-61
2022/12/20 07:52:58;;;;;;;12.63;6.90;;;;;;;-3.67;63.69;146423.44;4911468;29;20096;-60
2022/12/20 07:55:25;;;;;;;11.90;6.70;;;;;;;-3.53;64.61;146458.91;4914760;29;20255;-61
2022/12/20 07:57:55;;;;;;;13.80;8.00;;;;;;;-3.55;64.25;146453.88;4913990;29;20044;-61
2022/12/20 08:00:21;;;;;;;11.15;6.75;;;;;;;-3.56;64.09;146450.03;4914043;29;20178;-61
2022/12/20 08:02:54;;;;;;;14.30;6.95;;;;;;;-3.74;63.61;146406.94;4922179;29;20040;-60
2022/12/20 08:05:20;;;;;;;11.98;7.00;;;;;;;-3.53;64.08;146458.91;4914196;29;20265;-62
2022/12/20 08:07:47;;;;;;;11.15;6.78;;;;;;;-3.70;64.53;146415.84;4914583;29;20100;-63
2022/12/20 08:10:16;;;;;;;12.75;6.65;;;;;;;-3.65;64.12;146428.47;4915653;29;20028;-61
2022/12/20 08:12:44;;;;;;;11.63;6.72;;;;;;;-3.70;63.09;146417.09;4907678;29;20021;-61
2022/12/20 08:15:10;;;;;;;9.95;6.60;;;;;;;-3.79;63.62;146394.31;4913056;29;20056;-61
2022/12/20 08:17:36;;;;;;;10.55;6.35;;;;;;;-3.78;63.02;146395.56;4919137;29;20261;-61
2022/12/20 08:20:02;;;;;;;10.25;6.55;;;;;;;-3.66;63.64;146427.22;4909537;29;20024;-62
2022/12/20 08:22:29;;;;;;;10.43;6.82;;;;;;;-3.53;63.33;146457.66;4917008;29;20031;-62
2022/12/20 08:24:54;;;;;;;9.85;6.50;;;;;;;-3.39;63.40;146491.84;4910850;29;20032;-63
2022/12/20 08:27:20;;;;;;;9.35;6.63;;;;;;;-3.37;65.24;146498.19;4905980;29;20045;-63
2022/12/20 08:29:45;;;;;;;11.75;6.43;;;;;;;-3.53;62.75;146458.91;4916207;29;20028;-62
2022/12/20 08:32:12;;;;;;;11.60;6.85;;;;;;;-3.57;62.60;146447.53;4911817;29;20035;-60
2022/12/20 08:34:39;;;;;;;11.48;6.47;;;;;;;-3.54;63.27;146456.38;4910262;29;20084;-61
2022/12/20 08:37:04;;;;;;;9.63;6.35;;;;;;;-3.61;62.65;146437.38;4916811;29;20027;-63
2022/12/20 08:39:30;;;;;;;10.90;6.05;;;;;;;-3.57;63.26;146448.78;4919274;29;20020;-60
2022/12/20 08:41:55;;;;;;;11.82;6.85;;;;;;;-3.45;64.05;146477.91;4919780;29;20020;-61
2022/12/20 08:44:21;;;;;;;9.07;5.47;;;;;;;-3.53;62.56;146458.91;4920922;29;20055;-60
2022/12/20 08:46:46;;;;;;;8.85;4.90;;;;;;;-3.66;61.85;146425.97;4913334;29;20091;-61
2022/12/20 08:49:12;;;;;;;7.38;4.63;;;;;;;-3.63;63.89;146433.56;4911277;29;20332;-60
2022/12/20 08:51:38;;;;;;;6.05;3.85;;;;;;;-3.57;61.06;146448.78;4912604;29;20083;-60
2022/12/20 08:54:04;;;;;;;6.40;4.40;;;;;;;-3.79;61.84;146393.00;4915004;29;20029;-61
2022/12/20 08:56:29;;;;;;;6.25;4.00;;;;;;;-3.67;61.97;146424.69;4891398;29;20032;-61
2022/12/20 08:58:55;;;;;;;6.45;4.13;;;;;;;-3.51;62.51;146462.72;4902490;29;20059;-62
2022/12/20 09:01:21;;;;;;;6.95;4.50;;;;;;;-3.57;63.07;146447.53;4895318;29;20086;-62
2022/12/20 09:03:47;;;;;;;7.03;4.15;;;;;;;-3.52;61.78;146460.16;4904260;29;20057;-62
2022/12/20 09:06:19;;;;;;;7.78;5.00;;;;;;;-3.39;61.88;146493.16;4912337;29;20032;-62
2022/12/20 09:08:45;;;;;;;6.25;3.78;;;;;;;-3.32;59.99;146510.88;4903333;29;20076;-62
2022/12/20 09:11:14;;;;;;;9.05;4.45;;;;;;;-2.94;60.46;146603.41;4916967;29;20020;-62
2022/12/20 09:13:41;;;;;;;6.22;3.63;;;;;;;-2.92;60.08;146607.22;4918707;29;20036;-62
2022/12/20 09:16:08;;;;;;;6.93;4.10;;;;;;;-2.54;59.53;146701.09;4920742;29;20036;-62
2022/12/20 09:18:34;;;;;;;7.32;4.63;;;;;;;-2.62;59.12;146683.34;4921080;29;20037;-62
2022/12/20 09:21:05;;;;;;;7.10;4.63;;;;;;;-2.89;58.26;146614.81;4921342;29;20020;-62
2022/12/20 09:23:32;;;;;;;9.55;4.95;;;;;;;-2.64;60.43;146678.28;4912139;29;20028;-61
2022/12/20 09:26:09;;;;;;;5.97;4.30;;;;;;;-2.81;58.66;146636.44;4893917;29;20081;-61
2022/12/20 09:28:35;;;;;;;6.90;4.38;;;;;;;-2.91;60.42;146609.78;4906348;29;20372;-61
2022/12/20 09:31:03;;;;;;;6.38;3.90;;;;;;;-3.03;59.96;146581.88;4905439;29;20020;-63
2022/12/20 09:33:30;;;;;;;5.60;3.88;;;;;;;-3.00;60.54;146589.47;4914029;29;20088;-62
2022/12/20 09:35:57;;;;;;;8.75;4.93;;;;;;;-2.77;59.26;146645.28;4918473;29;20043;-61
2022/12/20 09:38:23;;;;;;;6.45;4.70;;;;;;;-2.85;61.67;146624.97;4912613;29;20246;-62
2022/12/20 09:40:54;;;;;;;6.72;4.38;;;;;;;-2.95;60.48;146602.19;4916761;29;20051;-62
2022/12/20 09:43:20;;;;;;;7.63;4.65;;;;;;;-2.93;59.80;146605.97;4918028;29;20086;-61
2022/12/20 09:45:50;;;;;;;7.22;4.50;;;;;;;-3.10;59.96;146564.13;4905934;29;20061;-61
2022/12/20 09:48:20;;;;;;;7.97;4.60;;;;;;;-3.09;61.46;146566.69;4895550;29;20104;-62
2022/12/20 09:50:57;;;;;;;8.48;4.72;;;;;;;-3.01;61.12;146585.69;4910565;29;20028;-62
2022/12/20 09:53:41;;;;;;;9.13;5.35;;;;;;;-2.87;60.21;146619.91;4900897;29;20115;-61
2022/12/20 09:56:27;;;;;;;6.68;4.13;;;;;;;-3.19;60.06;146542.59;4921199;29;20076;-62
2022/12/20 09:59:05;;;;;;;8.35;5.05;;;;;;;-3.27;61.37;146521.03;4907671;29;20051;-62
2022/12/20 10:01:33;;;;;;;6.45;5.05;;;;;;;-3.18;60.05;146543.84;4897520;29;20032;-60
2022/12/20 10:04:03;;;;;;;7.07;4.38;;;;;;;-3.01;62.01;146586.94;4900541;29;20309;-61
2022/12/20 10:06:35;;;;;;;8.75;4.63;;;;;;;-3.14;62.18;146553.97;4905745;29;20317;-62
2022/12/20 10:09:43;;;;;;;7.80;4.90;;;;;;;-3.29;59.21;146517.25;4893187;29;20041;-62
2022/12/20 10:12:18;;;;;;;7.55;4.78;;;;;;;-3.27;59.59;146522.28;4871009;29;20041;-61
2022/12/20 10:15:11;;;;;;;6.47;4.85;;;;;;;-3.25;58.91;146526.09;4904486;29;20085;-63
2022/12/20 10:17:55;;;;;;;6.82;5.00;;;;;;;-3.40;60.24;146489.34;4891925;29;20067;-62
2022/12/20 10:20:39;;;;;;;8.13;4.97;;;;;;;-3.31;61.33;146513.44;4909300;29;20036;-62
2022/12/20 10:23:24;;;;;;;8.77;5.10;;;;;;;-3.36;59.74;146499.50;4920487;29;20087;-63
2022/12/20 10:25:55;;;;;;;8.00;4.85;;;;;;;-3.40;61.82;146490.59;4913404;29;20033;-62
2022/12/20 10:28:34;;;;;;;7.78;5.10;;;;;;;-3.40;62.68;146489.34;4910097;29;20202;-61
2022/12/20 10:31:04;;;;;;;7.65;5.32;;;;;;;-3.51;62.18;146463.97;4901398;29;20091;-61
2022/12/20 10:33:30;;;;;;;8.60;5.55;;;;;;;-3.20;61.13;146538.78;4896299;29;20032;-61
2022/12/20 10:36:20;;;;;;;7.88;5.35;;;;;;;-3.22;63.35;146533.69;4909889;29;20103;-61
2022/12/20 10:38:49;;;;;;;9.60;5.13;;;;;;;-3.16;62.23;146548.94;4910095;29;20033;-62
2022/12/20 10:41:18;;;;;;;8.32;5.72;;;;;;;-3.16;61.57;146548.94;4891626;29;20039;-62
2022/12/20 10:44:24;;;;;;;8.55;6.13;;;;;;;-3.24;62.69;146528.63;4905586;29;20032;-62
2022/12/20 10:46:53;;;;;;;9.65;6.03;;;;;;;-3.35;62.00;146502.00;4907046;29;20039;-62
2022/12/20 10:49:32;;;;;;;8.05;5.32;;;;;;;-3.64;60.96;146431.03;4904393;29;20040;-62
2022/12/20 10:52:07;;;;;;;6.55;5.18;;;;;;;-3.50;62.33;146466.50;4900042;29;20092;-62
2022/12/20 10:54:36;;;;;;;7.45;5.00;;;;;;;-3.57;63.87;146448.78;4904162;29;20037;-61
2022/12/20 10:57:27;;;;;;;9.55;5.65;;;;;;;-3.35;64.07;146503.28;4891738;29;20036;-61
2022/12/20 10:59:57;;;;;;;9.90;5.50;;;;;;;-3.48;62.51;146471.59;4909473;29;20048;-62
2022/12/20 11:02:31;;;;;;;11.52;5.85;;;;;;;-3.41;62.48;146488.06;4890744;29;20237;-62
2022/12/20 11:05:05;;;;;;;10.75;6.15;;;;;;;-3.79;63.49;146394.31;4901354;29;20040;-62
2022/12/20 11:07:32;;;;;;;11.43;5.43;;;;;;;-3.60;62.46;146441.19;4917139;29;20092;-61
2022/12/20 11:10:17;;;;;;;8.93;5.88;;;;;;;-3.53;63.81;146457.66;4912929;29;20032;-62
2022/12/20 11:13:01;;;;;;;9.10;5.97;;;;;;;-3.74;62.07;146406.94;4915049;29;20021;-62
2022/12/20 11:15:30;;;;;;;9.00;6.22;;;;;;;-3.45;63.15;146477.91;4911970;29;20024;-61
2022/12/20 11:18:04;;;;;;;10.77;6.10;;;;;;;-3.47;62.70;146474.09;4919488;29;20035;-60
2022/12/20 11:20:39;;;;;;;10.15;6.57;;;;;;;-3.24;65.70;146528.63;4912455;29;20020;-61
2022/12/20 11:23:22;;;;;;;9.20;6.22;;;;;;;-3.31;64.20;146512.13;4917581;29;20032;-61
2022/12/20 11:26:09;;;;;;;9.60;6.00;;;;;;;-3.45;63.30;146477.91;4915800;29;20032;-61
2022/12/20 11:28:41;;;;;;;11.75;6.63;;;;;;;-3.44;64.44;146480.44;4909418;29;20341;-61
2022/12/20 11:31:34;;;;;;;11.88;6.75;;;;;;;-3.69;62.44;146419.63;4915541;29;20024;-62
2022/12/20 11:34:58;;;;;;;9.35;4.93;;;;;;;-3.66;63.40;146425.97;4910855;29;20135;-61
2022/12/20 11:37:26;;;;;;;8.07;5.20;;;;;;;-3.75;64.10;146404.41;4885038;29;20040;-62